createdAt,value
2022-11-05T00:02:23.529Z,99543.29
2022-11-05T00:05:13.066Z,99546.63
2022-11-05T00:08:06.327Z,99549.64
2022-11-05T00:10:37.846Z,99548.58
2022-11-05T00:13:29.017Z,99553.17
2022-11-05T00:16:18.203Z,99547.77
2022-11-05T00:19:06.421Z,99548.25
2022-11-05T00:21:57.834Z,99548.48
2022-11-05T00:24:46.942Z,99553.23
2022-11-05T00:27:19.164Z,99553.71
2022-11-05T00:29:51.029Z,99546.30
2022-11-05T00:32:23.039Z,99548.98
2022-11-05T00:34:54.873Z,99554.98
2022-11-05T00:37:27.932Z,99556.83
2022-11-05T00:39:59.649Z,99563.59
2022-11-05T00:42:49.555Z,99560.19
2022-11-05T00:45:22.027Z,99559.88
2022-11-05T00:48:25.925Z,99565.08
2022-11-05T00:50:57.582Z,99566.82
2022-11-05T00:53:29.514Z,99566.98
2022-11-05T00:56:02.109Z,99566.15
2022-11-05T00:58:34.084Z,99570.15
2022-11-05T01:01:06.135Z,99579.63
2022-11-05T01:03:40.299Z,99580.05
2022-11-05T01:06:14.628Z,99581.41
2022-11-05T01:08:49.193Z,99586.81
2022-11-05T01:11:34.046Z,99591.73
2022-11-05T01:14:07.918Z,99588.73
2022-11-05T01:16:41.357Z,99590.05
2022-11-05T01:19:11.791Z,99592.13
2022-11-05T01:21:43.600Z,99596.50
2022-11-05T01:24:15.248Z,99592.80
2022-11-05T01:26:46.964Z,99591.05
2022-11-05T01:29:18.697Z,99591.52
2022-11-05T01:31:50.364Z,99593.97
2022-11-05T01:34:22.175Z,99596.42
2022-11-05T01:36:53.898Z,99598.58
2022-11-05T01:39:25.560Z,99605.28
2022-11-05T01:41:58.809Z,99605.48
2022-11-05T01:44:59.053Z,99612.73
2022-11-05T01:47:43.481Z,99613.18
2022-11-05T01:50:34.850Z,99616.56
2022-11-05T01:53:14.436Z,99617.55
2022-11-05T01:55:50.548Z,99622.71
2022-11-05T01:58:27.132Z,99629.87
2022-11-05T02:00:59.422Z,99629.70
2022-11-05T02:03:32.089Z,99638.93
2022-11-05T02:06:03.894Z,99645.17
2022-11-05T02:08:48.270Z,99651.87
2022-11-05T02:11:21.040Z,99651.52
2022-11-05T02:13:52.043Z,99659.02
2022-11-05T02:16:37.505Z,99661.33
2022-11-05T02:19:26.882Z,99666.09
2022-11-05T02:22:26.673Z,99663.72
2022-11-05T02:25:17.830Z,99664.63
2022-11-05T02:28:18.914Z,99665.31
2022-11-05T02:30:55.216Z,99670.45
2022-11-05T02:33:40.188Z,99672.05
2022-11-05T02:36:32.466Z,99668.59
2022-11-05T02:39:17.876Z,99670.77
2022-11-05T02:42:04.682Z,99673.85
2022-11-05T02:44:46.053Z,99670.80
2022-11-05T02:47:25.153Z,99670.27
2022-11-05T02:50:06.245Z,99674.68
2022-11-05T02:52:44.122Z,99675.55
2022-11-05T02:55:23.716Z,99676.13
2022-11-05T02:57:55.554Z,99671.11
2022-11-05T03:00:48.942Z,99678.39
2022-11-05T03:03:32.195Z,99680.98
2022-11-05T03:06:31.920Z,99682.13
2022-11-05T03:09:32.203Z,99689.69
2022-11-05T03:12:19.076Z,99692.27
2022-11-05T03:14:59.105Z,99698.54
2022-11-05T03:17:40.317Z,99704.55
2022-11-05T03:20:20.712Z,99709.86
2022-11-05T03:22:56.500Z,99715.51
2022-11-05T03:25:29.653Z,99723.52
2022-11-05T03:28:06.251Z,99726.48
2022-11-05T03:30:41.041Z,99732.29
2022-11-05T03:33:18.147Z,99736.75
2022-11-05T03:35:55.127Z,99741.97
2022-11-05T03:38:29.855Z,99747.02
2022-11-05T03:41:07.123Z,99752.15
2022-11-05T03:43:41.786Z,99755.59
2022-11-05T03:46:18.026Z,99758.48
2022-11-05T03:48:52.895Z,99760.70
2022-11-05T03:51:30.661Z,99758.77
2022-11-05T03:54:05.815Z,99767.58
2022-11-05T03:56:43.910Z,99766.90
2022-11-05T03:59:17.275Z,99777.99
2022-11-05T04:01:50.736Z,99774.67
2022-11-05T04:04:22.584Z,99782.74
2022-11-05T04:07:11.974Z,99788.58
2022-11-05T04:10:01.248Z,99797.45
2022-11-05T04:12:50.944Z,99803.89
2022-11-05T04:15:22.888Z,99807.42
2022-11-05T04:17:55.515Z,99805.26
2022-11-05T04:20:45.140Z,99802.50
2022-11-05T04:23:34.407Z,99804.63
2022-11-05T04:26:06.180Z,99809.35
2022-11-05T04:28:51.722Z,99814.16
2022-11-05T04:31:23.424Z,99816.02
2022-11-05T04:33:55.092Z,99817.63
2022-11-05T04:36:26.867Z,99818.07
2022-11-05T04:38:58.485Z,99816.69
2022-11-05T04:41:30.164Z,99821.14
2022-11-05T04:44:02.459Z,99820.27
2022-11-05T04:46:34.117Z,99826.09
2022-11-05T04:49:05.846Z,99824.75
2022-11-05T04:51:37.534Z,99825.27
2022-11-05T04:54:09.230Z,99831.34
2022-11-05T04:56:40.957Z,99838.55
2022-11-05T04:59:12.841Z,99848.45
2022-11-05T05:01:44.560Z,99854.91
2022-11-05T05:04:16.429Z,99855.70
2022-11-05T05:06:48.106Z,99858.27
2022-11-05T05:09:20.015Z,99870.54
2022-11-05T05:11:51.744Z,99876.16
2022-11-05T05:14:23.360Z,99881.86
2022-11-05T05:16:55.053Z,99888.89
2022-11-05T05:19:28.066Z,99892.52
2022-11-05T05:21:59.854Z,99885.73
2022-11-05T05:24:31.561Z,99888.48
2022-11-05T05:27:03.261Z,99889.31
2022-11-05T05:29:34.935Z,99893.17
2022-11-05T05:32:06.673Z,99896.29
2022-11-05T05:34:38.364Z,99898.55
2022-11-05T05:37:10.159Z,99900.38
2022-11-05T05:39:41.867Z,99906.89
2022-11-05T05:42:13.866Z,99916.91
2022-11-05T05:44:45.612Z,99929.80
2022-11-05T05:47:17.244Z,99935.42
2022-11-05T05:49:48.899Z,99953.02
2022-11-05T05:52:20.624Z,99961.86
2022-11-05T05:54:52.445Z,99964.51
2022-11-05T05:57:24.103Z,99966.48
2022-11-05T05:59:55.786Z,99972.41
2022-11-05T06:02:27.625Z,99979.89
2022-11-05T06:04:59.526Z,99980.03
2022-11-05T06:07:36.874Z,99985.90
2022-11-05T06:10:10.255Z,99989.21
2022-11-05T06:12:41.899Z,99991.81
2022-11-05T06:15:14.082Z,99998.17
2022-11-05T06:17:47.434Z,100004.80
2022-11-05T06:20:19.192Z,100015.60
2022-11-05T06:22:57.925Z,100021.59
2022-11-05T06:25:29.583Z,100033.33
2022-11-05T06:28:01.765Z,100040.83
2022-11-05T06:30:33.484Z,100033.87
2022-11-05T06:33:08.489Z,100031.45
2022-11-05T06:35:40.389Z,100032.23
2022-11-05T06:38:12.091Z,100038.45
2022-11-05T06:40:43.980Z,100046.55
2022-11-05T06:43:15.741Z,100057.67
2022-11-05T06:45:47.366Z,100061.87
2022-11-05T06:48:19.054Z,100056.33
2022-11-05T06:50:51.035Z,100057.81
2022-11-05T06:53:22.858Z,100058.55
2022-11-05T06:55:54.550Z,100065.45
2022-11-05T06:58:26.790Z,100070.09
2022-11-05T07:01:03.244Z,100075.29
2022-11-05T07:03:35.531Z,100083.85
2022-11-05T07:06:09.180Z,100089.34
2022-11-05T07:08:40.909Z,100095.14
2022-11-05T07:11:12.689Z,100103.41
2022-11-05T07:13:45.819Z,100109.12
2022-11-05T07:16:17.513Z,100108.28
2022-11-05T07:18:49.275Z,100112.32
2022-11-05T07:21:21.032Z,100107.33
2022-11-05T07:23:52.900Z,100111.36
2022-11-05T07:26:24.577Z,100121.27
2022-11-05T07:28:57.353Z,100132.08
2022-11-05T07:31:27.580Z,100134.02
2022-11-05T07:34:00.976Z,100131.16
2022-11-05T07:36:34.411Z,100130.30
2022-11-05T07:39:06.311Z,100121.93
2022-11-05T07:41:38.309Z,100121.63
2022-11-05T07:44:10.196Z,100131.98
2022-11-05T07:46:41.969Z,100137.54
2022-11-05T07:49:13.901Z,100135.48
2022-11-05T07:51:46.062Z,100141.33
2022-11-05T07:54:17.832Z,100150.20
2022-11-05T07:56:50.478Z,100155.29
2022-11-05T07:59:22.225Z,100154.26
2022-11-05T08:01:54.144Z,100153.90
2022-11-05T08:04:26.697Z,100150.93
2022-11-05T08:06:58.379Z,100150.66
2022-11-05T08:09:30.136Z,100149.46
2022-11-05T08:12:03.323Z,100149.91
2022-11-05T08:14:35.350Z,100163.59
2022-11-05T08:17:07.070Z,100173.82
2022-11-05T08:19:39.067Z,100178.39
2022-11-05T08:22:10.857Z,100184.76
2022-11-05T08:24:42.526Z,100182.04
2022-11-05T08:27:14.403Z,100192.91
2022-11-05T08:29:47.853Z,100200.45
2022-11-05T08:32:19.635Z,100212.06
2022-11-05T08:34:51.385Z,100214.54
2022-11-05T08:37:24.792Z,100220.30
2022-11-05T08:39:56.622Z,100222.36
2022-11-05T08:42:28.377Z,100232.64
2022-11-05T08:45:00.123Z,100233.96
2022-11-05T08:47:31.986Z,100239.42
2022-11-05T08:50:03.830Z,100251.35
2022-11-05T08:52:35.648Z,100252.02
2022-11-05T08:55:08.556Z,100255.88
2022-11-05T08:57:40.236Z,100258.14
2022-11-05T09:00:14.664Z,100264.41
2022-11-05T09:02:46.826Z,100268.07
2022-11-05T09:05:18.991Z,100270.48
2022-11-05T09:07:52.259Z,100277.65
2022-11-05T09:10:26.816Z,100279.73
2022-11-05T09:12:58.702Z,100281.84
2022-11-05T09:15:30.571Z,100287.93
2022-11-05T09:18:02.372Z,100295.22
2022-11-05T09:20:36.459Z,100302.23
2022-11-05T09:23:08.994Z,100309.11
2022-11-05T09:25:39.830Z,100317.77
2022-11-05T09:28:16.746Z,100317.02
2022-11-05T09:30:51.417Z,100321.39
2022-11-05T09:33:25.458Z,100324.23
2022-11-05T09:36:00.425Z,100322.73
2022-11-05T09:38:32.276Z,100320.39
2022-11-05T09:41:07.342Z,100319.39
2022-11-05T09:43:43.209Z,100322.05
2022-11-05T09:46:21.112Z,100324.06
2022-11-05T09:48:56.215Z,100324.70
2022-11-05T09:51:27.948Z,100329.46
2022-11-05T09:54:02.385Z,100339.58
2022-11-05T09:56:38.408Z,100337.61
2022-11-05T09:59:19.212Z,100339.48
2022-11-05T10:01:52.717Z,100347.16
2022-11-05T10:04:28.646Z,100352.29
2022-11-05T10:07:03.944Z,100351.74
2022-11-05T10:09:43.370Z,100355.23
2022-11-05T10:12:18.717Z,100359.40
2022-11-05T10:14:59.379Z,100358.33
2022-11-05T10:17:37.866Z,100358.89
2022-11-05T10:20:20.315Z,100355.83
2022-11-05T10:22:56.233Z,100358.04
2022-11-05T10:25:31.946Z,100364.94
2022-11-05T10:28:05.056Z,100364.91
2022-11-05T10:30:36.986Z,100365.83
2022-11-05T10:33:09.956Z,100363.50
2022-11-05T10:35:48.620Z,100372.02
2022-11-05T10:38:20.548Z,100377.77
2022-11-05T10:41:05.471Z,100381.40
2022-11-05T10:43:44.156Z,100380.70
2022-11-05T10:46:28.586Z,100381.70
2022-11-05T10:49:12.441Z,100390.73
2022-11-05T10:51:45.940Z,100394.48
2022-11-05T10:54:22.046Z,100398.95
2022-11-05T10:56:53.734Z,100403.15
2022-11-05T10:59:28.028Z,100405.34
2022-11-05T11:02:04.320Z,100409.44
2022-11-05T11:04:38.090Z,100416.88
2022-11-05T11:07:22.936Z,100420.64
2022-11-05T11:09:55.496Z,100421.73
2022-11-05T11:12:41.030Z,100423.10
2022-11-05T11:15:24.445Z,100426.77
2022-11-05T11:17:57.120Z,100426.73
2022-11-05T11:20:31.547Z,100428.60
2022-11-05T11:23:06.231Z,100431.47
2022-11-05T11:25:46.485Z,100433.06
2022-11-05T11:28:26.554Z,100432.27
2022-11-05T11:31:07.945Z,100431.27
2022-11-05T11:33:42.185Z,100427.39
2022-11-05T11:36:17.490Z,100426.09
2022-11-05T11:38:49.543Z,100430.13
2022-11-05T11:41:32.331Z,100432.43
2022-11-05T11:44:12.074Z,100431.41
2022-11-05T11:46:47.560Z,100433.23
2022-11-05T11:52:18.843Z,100445.23
2022-11-05T11:54:51.130Z,100451.52
2022-11-05T11:57:29.180Z,100452.46
2022-11-05T12:00:10.047Z,100457.18
2022-11-05T12:03:07.247Z,100458.58
2022-11-05T12:05:47.361Z,100456.17
2022-11-05T12:08:37.248Z,100454.39
2022-11-05T12:11:17.004Z,100446.02
2022-11-05T12:14:11.013Z,100450.02
2022-11-05T12:17:01.586Z,100450.57
2022-11-05T12:19:47.854Z,100455.38
2022-11-05T12:22:30.496Z,100451.14
2022-11-05T12:25:14.654Z,100453.15
2022-11-05T12:28:11.518Z,100452.55
2022-11-05T12:30:50.403Z,100452.20
2022-11-05T12:33:36.277Z,100456.80
2022-11-05T12:36:22.734Z,100464.27
2022-11-05T12:39:05.510Z,100470.71
2022-11-05T12:41:47.241Z,100477.14
2022-11-05T12:44:42.790Z,100477.67
2022-11-05T12:47:30.248Z,100481.25
2022-11-05T12:50:15.244Z,100480.67
2022-11-05T12:53:13.462Z,100484.20
2022-11-05T12:55:49.465Z,100490.25
2022-11-05T12:58:31.563Z,100489.23
2022-11-05T13:01:17.398Z,100488.98
2022-11-05T13:03:55.697Z,100487.73
2022-11-05T13:06:35.758Z,100489.02
2022-11-05T13:09:14.034Z,100479.45
2022-11-05T13:11:52.738Z,100496.47
2022-11-05T13:14:28.954Z,100496.27
2022-11-05T13:17:05.481Z,100506.33
2022-11-05T13:19:42.908Z,100510.91
2022-11-05T13:22:30.250Z,100510.00
2022-11-05T13:25:06.142Z,100511.59
2022-11-05T13:27:49.607Z,100513.58
2022-11-05T13:30:25.498Z,100509.70
2022-11-05T13:33:00.952Z,100513.48
2022-11-05T13:35:38.437Z,100520.11
2022-11-05T13:38:35.158Z,100519.73
2022-11-05T13:41:26.251Z,100521.45
2022-11-05T13:44:13.910Z,100521.10
2022-11-05T13:47:01.929Z,100519.45
2022-11-05T13:49:58.770Z,100522.33
2022-11-05T13:52:50.306Z,100525.44
2022-11-05T13:55:58.665Z,100526.58
2022-11-05T13:59:22.581Z,100521.70
2022-11-05T14:01:58.082Z,100522.88
2022-11-05T14:04:35.517Z,100520.82
2022-11-05T14:07:13.631Z,100521.73
2022-11-05T14:09:45.869Z,100524.86
2022-11-05T14:12:27.077Z,100530.70
2022-11-05T14:15:05.267Z,100534.26
2022-11-05T14:17:58.346Z,100546.16
2022-11-05T14:20:59.455Z,100553.30
2022-11-05T14:23:41.340Z,100552.53
2022-11-05T14:26:19.564Z,100555.65
2022-11-05T14:29:09.701Z,100558.89
2022-11-05T14:32:11.794Z,100559.14
2022-11-05T14:34:47.592Z,100562.02
2022-11-05T14:37:28.611Z,100568.28
2022-11-05T14:40:24.740Z,100566.56
2022-11-05T14:42:58.610Z,100561.16
2022-11-05T14:45:35.794Z,100560.97
2022-11-05T14:48:25.696Z,100566.89
2022-11-05T14:50:57.540Z,100568.62
2022-11-05T14:53:34.859Z,100575.80
2022-11-05T14:56:10.212Z,100581.24
2022-11-05T14:58:43.281Z,100585.55
2022-11-05T15:01:55.790Z,100591.67
2022-11-05T15:04:31.329Z,100594.80
2022-11-05T15:07:33.756Z,100599.42
2022-11-05T15:10:13.375Z,100602.24
2022-11-05T15:12:48.818Z,100609.29
2022-11-05T15:15:25.275Z,100604.93
2022-11-05T15:18:02.749Z,100607.56
2022-11-05T15:20:41.689Z,100608.67
2022-11-05T15:23:16.832Z,100608.50
2022-11-05T15:25:53.787Z,100609.25
2022-11-05T15:28:33.994Z,100605.44
2022-11-05T15:31:07.579Z,100607.01
2022-11-05T15:33:40.308Z,100610.81
2022-11-05T15:36:21.802Z,100610.98
2022-11-05T15:39:22.887Z,100605.95
2022-11-05T15:41:45.799Z,100613.52
2022-11-05T15:44:29.708Z,100618.77
2022-11-05T15:47:21.408Z,100623.85
2022-11-05T15:49:55.579Z,100622.63
2022-11-05T15:52:36.306Z,100624.86
2022-11-05T15:55:19.619Z,100628.71
2022-11-05T15:57:53.288Z,100639.05
2022-11-05T16:00:26.959Z,100648.27
2022-11-05T16:03:03.470Z,100652.21
2022-11-05T16:05:37.226Z,100661.04
2022-11-05T16:08:15.384Z,100663.42
2022-11-05T16:10:50.400Z,100655.80
2022-11-05T16:13:29.882Z,100657.45
2022-11-05T16:16:03.658Z,100658.36
2022-11-05T16:18:37.872Z,100658.66
2022-11-05T16:21:12.066Z,100657.04
2022-11-05T16:23:47.477Z,100658.92
2022-11-05T16:27:01.152Z,100659.98
2022-11-05T16:29:29.685Z,100666.55
2022-11-05T16:32:04.806Z,100662.80
2022-11-05T16:34:41.342Z,100665.95
2022-11-05T16:37:19.056Z,100673.95
2022-11-05T16:39:51.007Z,100678.96
2022-11-05T16:42:41.642Z,100684.16
2022-11-05T16:45:16.803Z,100691.11
2022-11-05T16:47:49.146Z,100695.47
2022-11-05T16:50:25.690Z,100695.91
2022-11-05T16:52:57.499Z,100694.80
2022-11-05T16:55:30.210Z,100693.75
2022-11-05T16:58:02.866Z,100696.15
2022-11-05T17:00:35.541Z,100702.08
2022-11-05T17:03:07.289Z,100700.77
2022-11-05T17:05:39.066Z,100703.60
2022-11-05T17:08:11.585Z,100703.64
2022-11-05T17:10:41.992Z,100700.75
2022-11-05T17:13:16.852Z,100697.52
2022-11-05T17:15:51.625Z,100706.95
2022-11-05T17:18:23.673Z,100710.74
2022-11-05T17:20:57.529Z,100712.91
2022-11-05T17:23:30.188Z,100720.65
2022-11-05T17:26:06.635Z,100720.02
2022-11-05T17:28:39.111Z,100727.50
2022-11-05T17:31:13.373Z,100725.02
2022-11-05T17:33:45.743Z,100726.13
2022-11-05T17:36:18.045Z,100726.50
2022-11-05T17:38:50.203Z,100732.96
2022-11-05T17:41:23.711Z,100733.22
2022-11-05T17:43:58.213Z,100740.73
2022-11-05T17:46:30.200Z,100746.59
2022-11-05T17:49:02.102Z,100748.16
2022-11-05T17:51:34.778Z,100752.27
2022-11-05T17:54:07.560Z,100754.23
2022-11-05T17:56:44.496Z,100756.48
2022-11-05T17:59:16.831Z,100758.90
2022-11-05T18:01:49.440Z,100762.56
2022-11-05T18:04:20.472Z,100771.64
2022-11-05T18:06:52.700Z,100775.31
2022-11-05T18:09:24.617Z,100775.39
2022-11-05T18:11:56.690Z,100776.14
2022-11-05T18:14:28.579Z,100781.59
2022-11-05T18:17:01.025Z,100787.91
2022-11-05T18:19:32.990Z,100790.15
2022-11-05T18:22:05.924Z,100792.79
2022-11-05T18:24:37.673Z,100791.11
2022-11-05T18:27:09.368Z,100786.95
2022-11-05T18:29:41.692Z,100789.73
2022-11-05T18:32:13.391Z,100791.94
2022-11-05T18:34:45.158Z,100798.45
2022-11-05T18:37:17.395Z,100796.84
2022-11-05T18:39:53.185Z,100805.15
2022-11-05T18:42:25.420Z,100809.71
2022-11-05T18:44:57.350Z,100804.16
2022-11-05T18:47:29.437Z,100798.81
2022-11-05T18:50:01.227Z,100794.65
2022-11-05T18:52:34.008Z,100796.79
2022-11-05T18:55:04.682Z,100799.45
2022-11-05T18:57:37.401Z,100800.61
2022-11-05T19:00:12.604Z,100803.19
2022-11-05T19:02:44.649Z,100801.35
2022-11-05T19:05:31.940Z,100805.73
2022-11-05T19:08:04.233Z,100798.90
2022-11-05T19:10:36.108Z,100803.41
2022-11-05T19:13:07.892Z,100807.18
2022-11-05T19:15:42.531Z,100807.32
2022-11-05T19:18:14.517Z,100811.01
2022-11-05T19:20:46.695Z,100814.92
2022-11-05T19:23:18.363Z,100813.48
2022-11-05T19:25:50.073Z,100811.23
2022-11-05T19:28:21.877Z,100815.23
2022-11-05T19:30:53.671Z,100815.40
2022-11-05T19:33:25.358Z,100815.45
2022-11-05T19:35:59.660Z,100818.15
2022-11-05T19:38:31.470Z,100820.35
2022-11-05T19:41:07.931Z,100822.20
2022-11-05T19:43:41.361Z,100824.83
2022-11-05T19:46:15.222Z,100829.08
2022-11-05T19:48:47.073Z,100831.91
2022-11-05T19:51:21.341Z,100834.39
2022-11-05T19:53:55.272Z,100836.72
2022-11-05T19:56:29.667Z,100838.31
2022-11-05T19:59:03.122Z,100843.19
2022-11-05T20:01:35.750Z,100845.18
2022-11-05T20:04:07.961Z,100848.40
2022-11-05T20:06:41.080Z,100848.25
2022-11-05T20:09:21.742Z,100852.79
2022-11-05T20:11:56.261Z,100852.08
2022-11-05T20:14:29.916Z,100855.33
2022-11-05T20:17:02.422Z,100858.85
2022-11-05T20:19:35.133Z,100861.91
2022-11-05T20:22:07.010Z,100858.20
2022-11-05T20:24:38.923Z,100864.34
2022-11-05T20:27:10.914Z,100863.14
2022-11-05T20:29:43.088Z,100866.59
2022-11-05T20:32:15.064Z,100869.63
2022-11-05T20:34:47.684Z,100869.41
2022-11-05T20:37:20.120Z,100871.23
2022-11-05T20:39:51.876Z,100872.85
2022-11-05T20:42:23.627Z,100874.92
2022-11-05T20:44:55.463Z,100873.44
2022-11-05T20:47:27.225Z,100871.75
2022-11-05T20:50:00.127Z,100872.85
2022-11-05T20:52:32.069Z,100875.07
2022-11-05T20:55:09.056Z,100876.73
2022-11-05T20:57:41.046Z,100873.14
2022-11-05T21:00:15.762Z,100874.33
2022-11-05T21:02:47.738Z,100875.38
2022-11-05T21:05:20.284Z,100882.73
2022-11-05T21:07:52.063Z,100884.57
2022-11-05T21:10:24.074Z,100880.47
2022-11-05T21:12:55.871Z,100878.98
2022-11-05T21:15:27.642Z,100883.37
2022-11-05T21:18:00.371Z,100883.11
2022-11-05T21:20:30.527Z,100886.70
2022-11-05T21:23:02.125Z,100886.14
2022-11-05T21:25:34.425Z,100886.45
2022-11-05T21:28:06.533Z,100895.59
2022-11-05T21:30:41.557Z,100895.95
2022-11-05T21:33:13.341Z,100898.48
2022-11-05T21:35:47.550Z,100899.61
2022-11-05T21:38:19.921Z,100901.39
2022-11-05T21:40:51.636Z,100897.98
2022-11-05T21:43:23.620Z,100892.33
2022-11-05T21:45:55.989Z,100890.93
2022-11-05T21:48:27.786Z,100891.56
2022-11-05T21:51:17.367Z,100891.55
2022-11-05T21:54:06.815Z,100890.30
2022-11-05T21:56:59.115Z,100896.10
2022-11-05T21:59:51.803Z,100896.73
2022-11-05T22:02:28.482Z,100894.67
2022-11-05T22:05:02.279Z,100892.23
2022-11-05T22:07:36.061Z,100886.23
2022-11-05T22:10:15.876Z,100886.40
2022-11-05T22:12:48.120Z,100885.98
2022-11-05T22:15:19.975Z,100890.24
2022-11-05T22:17:53.746Z,100890.60
2022-11-05T22:20:25.691Z,100892.92
2022-11-05T22:22:57.576Z,100898.01
2022-11-05T22:25:29.431Z,100898.52
2022-11-05T22:28:01.437Z,100899.23
2022-11-05T22:30:35.473Z,100900.70
2022-11-05T22:33:07.627Z,100898.19
2022-11-05T22:35:41.339Z,100896.61
2022-11-05T22:38:13.656Z,100894.05
2022-11-05T22:40:45.734Z,100899.30
2022-11-05T22:43:17.345Z,100898.09
2022-11-05T22:45:49.040Z,100900.79
2022-11-05T22:48:20.801Z,100894.39
2022-11-05T22:50:52.778Z,100893.17
2022-11-05T22:53:24.566Z,100893.74
2022-11-05T22:55:56.296Z,100892.86
2022-11-05T22:58:28.065Z,100897.36
2022-11-05T23:00:59.836Z,100901.67
2022-11-05T23:03:33.345Z,100902.02
2022-11-05T23:06:07.500Z,100903.29
2022-11-05T23:09:11.083Z,100901.16
2022-11-05T23:11:42.660Z,100898.32
2022-11-05T23:14:15.905Z,100899.75
2022-11-05T23:17:05.573Z,100903.49
2022-11-05T23:19:55.238Z,100901.70
2022-11-05T23:22:46.687Z,100897.23
2022-11-05T23:25:20.893Z,100897.08
2022-11-05T23:27:55.712Z,100901.59
2022-11-05T23:30:29.989Z,100898.74
2022-11-05T23:33:01.936Z,100898.55
2022-11-05T23:35:53.205Z,100895.85
2022-11-05T23:38:37.939Z,100897.66
2022-11-05T23:41:27.873Z,100896.22
2022-11-05T23:44:17.508Z,100901.42
2022-11-05T23:47:06.603Z,100904.83
2022-11-05T23:49:38.290Z,100902.31
2022-11-05T23:52:10.050Z,100906.46
2022-11-05T23:54:41.831Z,100908.41
2022-11-05T23:57:13.649Z,100909.13
2022-11-05T23:59:45.313Z,100907.35
